sensor_id;sensor_type;location;lat;lon;timestamp;pressure;altitude;pressure_sealevel;temperature;humidity
49567;BME280;35472;50.514;30.448;2022-08-19T00:01:31;99614.69;;;21.19;94.17
49567;BME280;35472;50.514;30.448;2022-08-19T00:03:58;99626.34;;;21.25;93.52
49567;BME280;35472;50.514;30.448;2022-08-19T00:06:24;99624.09;;;21.42;92.95
49567;BME280;35472;50.514;30.448;2022-08-19T00:08:50;99619.88;;;21.33;93.62
49567;BME280;35472;50.514;30.448;2022-08-19T00:11:17;99623.81;;;21.20;95.09
49567;BME280;35472;50.514;30.448;2022-08-19T00:13:42;99626.25;;;21.21;95.05
49567;BME280;35472;50.514;30.448;2022-08-19T00:16:08;99622.22;;;21.19;95.33
49567;BME280;35472;50.514;30.448;2022-08-19T00:18:33;99621.75;;;21.16;95.60
49567;BME280;35472;50.514;30.448;2022-08-19T00:20:59;99619.19;;;21.24;95.00
49567;BME280;35472;50.514;30.448;2022-08-19T00:23:25;99616.97;;;21.29;95.03
49567;BME280;35472;50.514;30.448;2022-08-19T00:25:51;99627.09;;;21.09;95.42
49567;BME280;35472;50.514;30.448;2022-08-19T00:28:18;99617.91;;;21.33;94.50
49567;BME280;35472;50.514;30.448;2022-08-19T00:30:44;99627.03;;;21.34;94.39
49567;BME280;35472;50.514;30.448;2022-08-19T00:33:09;99621.50;;;21.22;94.82
49567;BME280;35472;50.514;30.448;2022-08-19T00:35:35;99617.34;;;21.15;95.04
49567;BME280;35472;50.514;30.448;2022-08-19T00:38:01;99622.53;;;20.89;97.07
49567;BME280;35472;50.514;30.448;2022-08-19T00:40:26;99620.13;;;20.87;97.06
49567;BME280;35472;50.514;30.448;2022-08-19T00:42:52;99623.41;;;20.65;99.28
49567;BME280;35472;50.514;30.448;2022-08-19T00:45:20;99624.16;;;20.90;97.73
49567;BME280;35472;50.514;30.448;2022-08-19T00:47:46;99637.41;;;20.97;97.56
49567;BME280;35472;50.514;30.448;2022-08-19T00:50:15;99631.47;;;21.10;97.46
49567;BME280;35472;50.514;30.448;2022-08-19T00:52:45;99631.34;;;21.19;96.30
49567;BME280;35472;50.514;30.448;2022-08-19T00:55:18;99624.38;;;21.25;95.53
49567;BME280;35472;50.514;30.448;2022-08-19T00:57:46;99643.09;;;20.88;97.52
49567;BME280;35472;50.514;30.448;2022-08-19T01:00:16;99634.66;;;20.84;98.24
49567;BME280;35472;50.514;30.448;2022-08-19T01:02:42;99645.06;;;20.87;98.14
49567;BME280;35472;50.514;30.448;2022-08-19T01:05:11;99642.34;;;21.03;96.93
49567;BME280;35472;50.514;30.448;2022-08-19T01:07:39;99642.47;;;21.07;96.43
49567;BME280;35472;50.514;30.448;2022-08-19T01:10:09;99641.78;;;20.98;98.14
49567;BME280;35472;50.514;30.448;2022-08-19T01:12:36;99648.81;;;20.55;99.90
49567;BME280;35472;50.514;30.448;2022-08-19T01:15:05;99638.38;;;20.88;98.65
49567;BME280;35472;50.514;30.448;2022-08-19T01:17:32;99650.66;;;20.63;100.00
49567;BME280;35472;50.514;30.448;2022-08-19T01:19:58;99653.06;;;20.65;99.61
49567;BME280;35472;50.514;30.448;2022-08-19T01:24:51;99643.06;;;21.00;97.39
49567;BME280;35472;50.514;30.448;2022-08-19T01:27:17;99643.72;;;20.69;99.22
49567;BME280;35472;50.514;30.448;2022-08-19T01:29:44;99638.28;;;20.60;99.56
49567;BME280;35472;50.514;30.448;2022-08-19T01:32:12;99642.69;;;20.61;99.95
49567;BME280;35472;50.514;30.448;2022-08-19T01:34:38;99645.59;;;20.53;100.00
49567;BME280;35472;50.514;30.448;2022-08-19T01:37:11;99634.72;;;20.60;99.69
49567;BME280;35472;50.514;30.448;2022-08-19T01:39:39;99640.84;;;20.53;100.00
49567;BME280;35472;50.514;30.448;2022-08-19T01:42:07;99626.25;;;20.44;100.00
49567;BME280;35472;50.514;30.448;2022-08-19T01:44:34;99625.59;;;20.35;100.00
49567;BME280;35472;50.514;30.448;2022-08-19T01:47:01;99625.47;;;20.56;100.00
49567;BME280;35472;50.514;30.448;2022-08-19T01:49:27;99615.09;;;20.53;100.00
49567;BME280;35472;50.514;30.448;2022-08-19T01:51:53;99621.31;;;20.13;100.00
49567;BME280;35472;50.514;30.448;2022-08-19T01:54:21;99626.06;;;20.49;100.00
49567;BME280;35472;50.514;30.448;2022-08-19T01:56:47;99619.69;;;20.36;100.00
49567;BME280;35472;50.514;30.448;2022-08-19T01:59:16;99623.19;;;20.21;100.00
49567;BME280;35472;50.514;30.448;2022-08-19T02:01:42;99619.91;;;20.44;100.00
49567;BME280;35472;50.514;30.448;2022-08-19T02:04:08;99617.63;;;20.09;100.00
49567;BME280;35472;50.514;30.448;2022-08-19T02:06:34;99616.13;;;20.36;100.00
49567;BME280;35472;50.514;30.448;2022-08-19T02:09:00;99620.84;;;20.23;100.00
49567;BME280;35472;50.514;30.448;2022-08-19T02:11:31;99611.38;;;20.12;100.00
49567;BME280;35472;50.514;30.448;2022-08-19T02:14:00;99616.91;;;19.88;100.00
49567;BME280;35472;50.514;30.448;2022-08-19T02:16:26;99614.38;;;20.07;100.00
49567;BME280;35472;50.514;30.448;2022-08-19T02:18:52;99622.81;;;20.35;100.00
49567;BME280;35472;50.514;30.448;2022-08-19T02:21:19;99621.66;;;20.24;100.00
49567;BME280;35472;50.514;30.448;2022-08-19T02:23:45;99630.50;;;19.80;100.00
49567;BME280;35472;50.514;30.448;2022-08-19T02:26:11;99630.94;;;19.70;100.00
49567;BME280;35472;50.514;30.448;2022-08-19T02:28:37;99633.59;;;19.67;100.00
49567;BME280;35472;50.514;30.448;2022-08-19T02:31:03;99629.44;;;19.61;100.00
49567;BME280;35472;50.514;30.448;2022-08-19T02:33:34;99630.66;;;19.84;100.00
49567;BME280;35472;50.514;30.448;2022-08-19T02:35:59;99633.50;;;19.88;100.00
49567;BME280;35472;50.514;30.448;2022-08-19T02:38:27;99627.31;;;19.58;100.00
49567;BME280;35472;50.514;30.448;2022-08-19T02:40:56;99625.97;;;19.64;100.00
49567;BME280;35472;50.514;30.448;2022-08-19T02:43:23;99639.50;;;19.90;100.00
49567;BME280;35472;50.514;30.448;2022-08-19T02:45:49;99621.63;;;19.75;100.00
49567;BME280;35472;50.514;30.448;2022-08-19T02:48:17;99636.25;;;19.75;100.00
49567;BME280;35472;50.514;30.448;2022-08-19T02:50:44;99632.53;;;19.71;100.00
49567;BME280;35472;50.514;30.448;2022-08-19T02:53:10;99631.72;;;19.59;100.00
49567;BME280;35472;50.514;30.448;2022-08-19T02:55:42;99631.84;;;19.62;100.00
49567;BME280;35472;50.514;30.448;2022-08-19T02:58:08;99632.44;;;19.68;100.00
49567;BME280;35472;50.514;30.448;2022-08-19T03:00:33;99634.34;;;20.00;100.00
49567;BME280;35472;50.514;30.448;2022-08-19T03:02:59;99638.94;;;19.84;100.00
49567;BME280;35472;50.514;30.448;2022-08-19T03:05:25;99645.16;;;19.81;100.00
49567;BME280;35472;50.514;30.448;2022-08-19T03:07:52;99641.13;;;19.78;100.00
49567;BME280;35472;50.514;30.448;2022-08-19T03:10:17;99641.19;;;19.70;100.00
49567;BME280;35472;50.514;30.448;2022-08-19T03:12:43;99651.50;;;19.81;100.00
49567;BME280;35472;50.514;30.448;2022-08-19T03:15:08;99641.56;;;19.80;100.00
49567;BME280;35472;50.514;30.448;2022-08-19T03:17:35;99639.34;;;19.62;100.00
49567;BME280;35472;50.514;30.448;2022-08-19T03:20:00;99651.47;;;19.69;100.00
49567;BME280;35472;50.514;30.448;2022-08-19T03:22:26;99645.41;;;19.55;100.00
49567;BME280;35472;50.514;30.448;2022-08-19T03:24:52;99654.72;;;19.83;100.00
49567;BME280;35472;50.514;30.448;2022-08-19T03:27:18;99653.56;;;19.72;100.00
49567;BME280;35472;50.514;30.448;2022-08-19T03:29:43;99658.38;;;19.63;100.00
49567;BME280;35472;50.514;30.448;2022-08-19T03:32:10;99656.78;;;19.74;100.00
49567;BME280;35472;50.514;30.448;2022-08-19T03:34:37;99656.19;;;19.69;100.00
49567;BME280;35472;50.514;30.448;2022-08-19T03:37:06;99661.78;;;19.93;100.00
49567;BME280;35472;50.514;30.448;2022-08-19T03:39:32;99663.53;;;19.98;100.00
49567;BME280;35472;50.514;30.448;2022-08-19T03:41:57;99658.22;;;19.93;100.00
49567;BME280;35472;50.514;30.448;2022-08-19T03:44:25;99665.97;;;20.12;100.00
49567;BME280;35472;50.514;30.448;2022-08-19T03:46:53;99659.19;;;20.33;100.00
49567;BME280;35472;50.514;30.448;2022-08-19T03:49:21;99671.84;;;20.10;100.00
49567;BME280;35472;50.514;30.448;2022-08-19T03:51:48;99671.53;;;20.36;100.00
49567;BME280;35472;50.514;30.448;2022-08-19T03:54:17;99678.56;;;20.21;100.00
49567;BME280;35472;50.514;30.448;2022-08-19T03:56:45;99679.75;;;21.22;96.08
49567;BME280;35472;50.514;30.448;2022-08-19T03:59:14;99679.44;;;21.95;91.41
49567;BME280;35472;50.514;30.448;2022-08-19T04:01:40;99678.88;;;21.89;90.50
49567;BME280;35472;50.514;30.448;2022-08-19T04:04:06;99670.59;;;23.04;83.40
49567;BME280;35472;50.514;30.448;2022-08-19T04:06:34;99672.06;;;22.97;82.06
49567;BME280;35472;50.514;30.448;2022-08-19T04:09:03;99666.72;;;23.86;76.92
49567;BME280;35472;50.514;30.448;2022-08-19T04:11:33;99664.88;;;23.93;77.28
49567;BME280;35472;50.514;30.448;2022-08-19T04:13:59;99666.34;;;24.56;73.27
49567;BME280;35472;50.514;30.448;2022-08-19T04:16:26;99667.94;;;24.57;71.97
49567;BME280;35472;50.514;30.448;2022-08-19T04:18:56;99674.06;;;24.93;69.82
49567;BME280;35472;50.514;30.448;2022-08-19T04:21:28;99677.00;;;26.01;66.16
49567;BME280;35472;50.514;30.448;2022-08-19T04:23:55;99685.84;;;26.06;65.90
49567;BME280;35472;50.514;30.448;2022-08-19T04:26:25;99675.16;;;26.60;63.44
49567;BME280;35472;50.514;30.448;2022-08-19T04:28:51;99682.25;;;25.72;65.65
49567;BME280;35472;50.514;30.448;2022-08-19T04:31:19;99683.56;;;26.60;62.10
49567;BME280;35472;50.514;30.448;2022-08-19T04:33:46;99682.78;;;27.29;60.63
49567;BME280;35472;50.514;30.448;2022-08-19T04:36:21;99684.69;;;27.10;59.51
49567;BME280;35472;50.514;30.448;2022-08-19T04:38:47;99706.22;;;27.79;56.53
49567;BME280;35472;50.514;30.448;2022-08-19T04:41:14;99701.00;;;26.97;58.85
49567;BME280;35472;50.514;30.448;2022-08-19T04:43:58;99712.53;;;27.62;57.83
49567;BME280;35472;50.514;30.448;2022-08-19T04:46:23;99711.72;;;27.58;58.03
49567;BME280;35472;50.514;30.448;2022-08-19T04:48:49;99703.91;;;28.31;54.58
49567;BME280;35472;50.514;30.448;2022-08-19T04:51:14;99707.16;;;28.65;53.30
49567;BME280;35472;50.514;30.448;2022-08-19T04:53:41;99707.50;;;28.14;55.03
49567;BME280;35472;50.514;30.448;2022-08-19T04:56:15;99703.09;;;28.09;54.96
49567;BME280;35472;50.514;30.448;2022-08-19T04:58:43;99712.59;;;29.61;50.43
49567;BME280;35472;50.514;30.448;2022-08-19T05:01:17;99717.97;;;28.38;52.82
49567;BME280;35472;50.514;30.448;2022-08-19T05:03:42;99712.38;;;28.52;53.38
49567;BME280;35472;50.514;30.448;2022-08-19T05:06:12;99713.28;;;26.82;57.99
49567;BME280;35472;50.514;30.448;2022-08-19T05:08:40;99710.34;;;28.28;53.74
49567;BME280;35472;50.514;30.448;2022-08-19T05:11:11;99711.69;;;27.54;55.02
49567;BME280;35472;50.514;30.448;2022-08-19T05:13:37;99704.34;;;28.40;52.62
49567;BME280;35472;50.514;30.448;2022-08-19T05:16:03;99710.31;;;28.10;54.12
49567;BME280;35472;50.514;30.448;2022-08-19T05:18:28;99707.84;;;27.80;55.16
49567;BME280;35472;50.514;30.448;2022-08-19T05:21:15;99716.63;;;29.46;50.50
49567;BME280;35472;50.514;30.448;2022-08-19T05:24:00;99725.16;;;28.28;53.20
49567;BME280;35472;50.514;30.448;2022-08-19T05:26:27;99719.16;;;28.44;54.23
49567;BME280;35472;50.514;30.448;2022-08-19T05:28:52;99717.69;;;29.81;48.98
49567;BME280;35472;50.514;30.448;2022-08-19T05:31:18;99718.75;;;28.99;51.02
49567;BME280;35472;50.514;30.448;2022-08-19T05:33:44;99727.81;;;30.86;47.26
49567;BME280;35472;50.514;30.448;2022-08-19T05:36:10;99723.44;;;31.26;45.40
49567;BME280;35472;50.514;30.448;2022-08-19T05:38:35;99724.69;;;30.21;46.77
49567;BME280;35472;50.514;30.448;2022-08-19T05:41:12;99729.59;;;30.10;47.45
49567;BME280;35472;50.514;30.448;2022-08-19T05:43:38;99726.44;;;30.60;46.14
49567;BME280;35472;50.514;30.448;2022-08-19T05:46:05;99736.31;;;30.30;46.65
49567;BME280;35472;50.514;30.448;2022-08-19T05:48:32;99731.34;;;29.82;47.84
49567;BME280;35472;50.514;30.448;2022-08-19T05:50:58;99727.56;;;28.91;49.58
49567;BME280;35472;50.514;30.448;2022-08-19T05:53:24;99727.53;;;30.77;45.80
49567;BME280;35472;50.514;30.448;2022-08-19T05:55:50;99723.50;;;31.87;43.49
49567;BME280;35472;50.514;30.448;2022-08-19T05:58:15;99729.59;;;30.13;46.40
49567;BME280;35472;50.514;30.448;2022-08-19T06:00:43;99727.59;;;28.55;51.41
49567;BME280;35472;50.514;30.448;2022-08-19T06:03:09;99726.78;;;28.90;50.46
49567;BME280;35472;50.514;30.448;2022-08-19T06:05:38;99724.69;;;30.21;48.00
49567;BME280;35472;50.514;30.448;2022-08-19T06:08:03;99714.59;;;30.31;46.09
49567;BME280;35472;50.514;30.448;2022-08-19T06:10:29;99709.59;;;30.53;47.09
49567;BME280;35472;50.514;30.448;2022-08-19T06:12:55;99705.97;;;31.01;45.02
49567;BME280;35472;50.514;30.448;2022-08-19T06:15:21;99713.81;;;30.82;46.61
49567;BME280;35472;50.514;30.448;2022-08-19T06:17:51;99702.72;;;31.02;45.13
49567;BME280;35472;50.514;30.448;2022-08-19T06:20:16;99705.06;;;32.33;42.85
49567;BME280;35472;50.514;30.448;2022-08-19T06:22:46;99711.72;;;30.41;45.58
49567;BME280;35472;50.514;30.448;2022-08-19T06:25:13;99712.25;;;31.15;44.10
49567;BME280;35472;50.514;30.448;2022-08-19T06:27:39;99716.47;;;30.48;46.59
49567;BME280;35472;50.514;30.448;2022-08-19T06:30:06;99711.19;;;31.70;43.31
49567;BME280;35472;50.514;30.448;2022-08-19T06:32:31;99707.19;;;31.37;45.13
49567;BME280;35472;50.514;30.448;2022-08-19T06:34:57;99716.94;;;30.39;46.66
49567;BME280;35472;50.514;30.448;2022-08-19T06:37:22;99700.66;;;29.22;49.50
49567;BME280;35472;50.514;30.448;2022-08-19T06:39:49;99707.38;;;29.56;49.21
49567;BME280;35472;50.514;30.448;2022-08-19T06:42:15;99719.72;;;29.80;47.25
49567;BME280;35472;50.514;30.448;2022-08-19T06:44:46;99712.59;;;30.83;45.23
49567;BME280;35472;50.514;30.448;2022-08-19T06:47:14;99720.97;;;29.65;47.74
49567;BME280;35472;50.514;30.448;2022-08-19T06:49:42;99724.28;;;29.35;49.30
49567;BME280;35472;50.514;30.448;2022-08-19T06:52:07;99713.31;;;29.73;48.33
49567;BME280;35472;50.514;30.448;2022-08-19T06:54:33;99712.94;;;30.85;45.91
49567;BME280;35472;50.514;30.448;2022-08-19T06:57:00;99719.06;;;29.33;49.44
49567;BME280;35472;50.514;30.448;2022-08-19T06:59:30;99711.88;;;29.22;48.59
49567;BME280;35472;50.514;30.448;2022-08-19T07:01:58;99721.53;;;28.17;52.65
49567;BME280;35472;50.514;30.448;2022-08-19T07:04:29;99735.88;;;29.51;48.23
49567;BME280;35472;50.514;30.448;2022-08-19T07:06:59;99733.84;;;27.81;53.14
49567;BME280;35472;50.514;30.448;2022-08-19T07:09:25;99735.59;;;28.39;52.86
49567;BME280;35472;50.514;30.448;2022-08-19T07:11:52;99726.94;;;27.57;54.21
49567;BME280;35472;50.514;30.448;2022-08-19T07:14:21;99724.06;;;29.88;49.82
49567;BME280;35472;50.514;30.448;2022-08-19T07:16:48;99721.56;;;29.06;50.79
49567;BME280;35472;50.514;30.448;2022-08-19T07:19:14;99724.13;;;26.91;55.97
49567;BME280;35472;50.514;30.448;2022-08-19T07:21:41;99722.00;;;27.25;56.35
49567;BME280;35472;50.514;30.448;2022-08-19T07:24:07;99724.34;;;28.17;53.67
49567;BME280;35472;50.514;30.448;2022-08-19T07:26:39;99711.53;;;28.98;53.15
49567;BME280;35472;50.514;30.448;2022-08-19T07:29:05;99713.50;;;28.19;55.00
49567;BME280;35472;50.514;30.448;2022-08-19T07:31:31;99719.56;;;28.50;53.56
49567;BME280;35472;50.514;30.448;2022-08-19T07:34:06;99715.41;;;27.03;58.33
49567;BME280;35472;50.514;30.448;2022-08-19T07:36:36;99713.88;;;27.09;58.68
49567;BME280;35472;50.514;30.448;2022-08-19T07:39:07;99705.09;;;28.05;56.21
49567;BME280;35472;50.514;30.448;2022-08-19T07:41:35;99704.16;;;29.58;52.76
49567;BME280;35472;50.514;30.448;2022-08-19T07:44:03;99717.28;;;27.47;58.06
49567;BME280;35472;50.514;30.448;2022-08-19T07:46:33;99721.59;;;26.71;59.97
49567;BME280;35472;50.514;30.448;2022-08-19T07:49:00;99702.69;;;28.14;56.08
49567;BME280;35472;50.514;30.448;2022-08-19T07:51:26;99714.69;;;27.10;58.90
49567;BME280;35472;50.514;30.448;2022-08-19T07:53:52;99719.16;;;27.21;59.03
49567;BME280;35472;50.514;30.448;2022-08-19T07:56:19;99705.28;;;27.46;58.88
49567;BME280;35472;50.514;30.448;2022-08-19T07:58:48;99713.56;;;28.83;54.87
49567;BME280;35472;50.514;30.448;2022-08-19T08:01:21;99714.53;;;27.65;56.94
49567;BME280;35472;50.514;30.448;2022-08-19T08:03:51;99722.69;;;27.91;57.48
49567;BME280;35472;50.514;30.448;2022-08-19T08:06:36;99720.53;;;27.56;57.67
49567;BME280;35472;50.514;30.448;2022-08-19T08:09:31;99740.63;;;27.03;58.76
49567;BME280;35472;50.514;30.448;2022-08-19T08:12:06;99731.16;;;27.18;57.97
49567;BME280;35472;50.514;30.448;2022-08-19T08:14:37;99718.22;;;27.03;59.49
49567;BME280;35472;50.514;30.448;2022-08-19T08:17:05;99729.16;;;26.64;60.50
49567;BME280;35472;50.514;30.448;2022-08-19T08:19:31;99721.75;;;26.93;59.26
49567;BME280;35472;50.514;30.448;2022-08-19T08:21:58;99732.00;;;27.30;59.29
49567;BME280;35472;50.514;30.448;2022-08-19T08:24:27;99737.88;;;26.18;62.56
49567;BME280;35472;50.514;30.448;2022-08-19T08:26:53;99741.94;;;26.68;60.91
49567;BME280;35472;50.514;30.448;2022-08-19T08:29:19;99733.44;;;27.06;60.27
49567;BME280;35472;50.514;30.448;2022-08-19T08:31:46;99728.81;;;26.28;62.10
49567;BME280;35472;50.514;30.448;2022-08-19T08:34:12;99731.41;;;26.10;63.94
49567;BME280;35472;50.514;30.448;2022-08-19T08:36:42;99753.22;;;26.35;60.92
49567;BME280;35472;50.514;30.448;2022-08-19T08:39:13;99754.16;;;26.09;62.04
49567;BME280;35472;50.514;30.448;2022-08-19T08:42:00;99747.19;;;26.33;62.56
49567;BME280;35472;50.514;30.448;2022-08-19T08:47:25;99732.88;;;26.38;62.07
49567;BME280;35472;50.514;30.448;2022-08-19T08:49:55;99749.94;;;26.26;62.77
49567;BME280;35472;50.514;30.448;2022-08-19T08:52:29;99747.94;;;25.59;64.81
49567;BME280;35472;50.514;30.448;2022-08-19T08:54:58;99750.59;;;25.78;64.15
49567;BME280;35472;50.514;30.448;2022-08-19T09:00:28;99734.13;;;26.40;62.87
49567;BME280;35472;50.514;30.448;2022-08-19T09:02:56;99736.28;;;26.20;63.99
49567;BME280;35472;50.514;30.448;2022-08-19T09:05:24;99739.25;;;26.38;63.42
49567;BME280;35472;50.514;30.448;2022-08-19T09:08:06;99731.03;;;25.75;66.06
49567;BME280;35472;50.514;30.448;2022-08-19T09:10:38;99729.56;;;26.69;63.12
49567;BME280;35472;50.514;30.448;2022-08-19T09:15:58;99758.53;;;26.43;64.33
49567;BME280;35472;50.514;30.448;2022-08-19T09:18:42;99755.78;;;26.47;64.89
49567;BME280;35472;50.514;30.448;2022-08-19T09:21:09;99757.06;;;25.82;67.39
49567;BME280;35472;50.514;30.448;2022-08-19T09:23:36;99747.81;;;26.53;64.96
49567;BME280;35472;50.514;30.448;2022-08-19T09:26:07;99748.22;;;27.03;63.53
49567;BME280;35472;50.514;30.448;2022-08-19T09:28:33;99754.09;;;26.87;63.23
49567;BME280;35472;50.514;30.448;2022-08-19T09:30:58;99747.81;;;26.53;64.31
49567;BME280;35472;50.514;30.448;2022-08-19T09:33:24;99763.16;;;25.91;67.18
49567;BME280;35472;50.514;30.448;2022-08-19T09:35:49;99770.78;;;25.64;68.77
49567;BME280;35472;50.514;30.448;2022-08-19T09:38:15;99762.97;;;26.11;67.98
49567;BME280;35472;50.514;30.448;2022-08-19T09:40:41;99772.38;;;25.96;68.07
49567;BME280;35472;50.514;30.448;2022-08-19T09:43:06;99763.97;;;26.33;66.77
49567;BME280;35472;50.514;30.448;2022-08-19T09:45:33;99758.59;;;27.02;65.17
49567;BME280;35472;50.514;30.448;2022-08-19T09:47:58;99764.09;;;26.06;68.43
49567;BME280;35472;50.514;30.448;2022-08-19T09:50:24;99757.06;;;26.19;67.32
49567;BME280;35472;50.514;30.448;2022-08-19T09:52:50;99764.38;;;26.72;65.35
49567;BME280;35472;50.514;30.448;2022-08-19T09:55:17;99755.38;;;26.96;65.58
49567;BME280;35472;50.514;30.448;2022-08-19T09:57:43;99751.84;;;26.55;66.03
49567;BME280;35472;50.514;30.448;2022-08-19T10:00:09;99761.06;;;26.59;67.31
49567;BME280;35472;50.514;30.448;2022-08-19T10:02:35;99765.34;;;26.94;65.78
49567;BME280;35472;50.514;30.448;2022-08-19T10:05:01;99773.28;;;26.07;68.64
49567;BME280;35472;50.514;30.448;2022-08-19T10:07:45;99779.88;;;25.88;70.39
49567;BME280;35472;50.514;30.448;2022-08-19T10:10:11;99769.09;;;25.90;69.97
49567;BME280;35472;50.514;30.448;2022-08-19T10:12:36;99788.34;;;26.32;69.19
49567;BME280;35472;50.514;30.448;2022-08-19T10:15:04;99778.19;;;25.53;72.08
49567;BME280;35472;50.514;30.448;2022-08-19T10:17:30;99772.22;;;25.81;71.00
49567;BME280;35472;50.514;30.448;2022-08-19T10:19:58;99773.38;;;26.14;68.94
49567;BME280;35472;50.514;30.448;2022-08-19T10:22:24;99770.38;;;26.70;67.46
49567;BME280;35472;50.514;30.448;2022-08-19T10:24:49;99771.47;;;27.07;66.25
49567;BME280;35472;50.514;30.448;2022-08-19T10:27:15;99776.81;;;27.33;63.79
49567;BME280;35472;50.514;30.448;2022-08-19T10:29:40;99781.31;;;26.93;65.75
49567;BME280;35472;50.514;30.448;2022-08-19T10:32:07;99775.88;;;26.63;66.08
49567;BME280;35472;50.514;30.448;2022-08-19T10:34:34;99787.47;;;26.62;65.22
49567;BME280;35472;50.514;30.448;2022-08-19T10:37:02;99801.44;;;26.25;64.39
49567;BME280;35472;50.514;30.448;2022-08-19T10:39:30;99793.09;;;26.65;64.63
49567;BME280;35472;50.514;30.448;2022-08-19T10:41:59;99782.81;;;26.77;62.97
49567;BME280;35472;50.514;30.448;2022-08-19T10:44:25;99784.66;;;26.62;63.30
49567;BME280;35472;50.514;30.448;2022-08-19T10:46:51;99790.84;;;26.82;61.80
49567;BME280;35472;50.514;30.448;2022-08-19T10:49:17;99799.78;;;26.57;63.80
49567;BME280;35472;50.514;30.448;2022-08-19T10:51:45;99772.13;;;26.89;63.37
49567;BME280;35472;50.514;30.448;2022-08-19T10:54:29;99795.16;;;26.35;65.33
49567;BME280;35472;50.514;30.448;2022-08-19T10:57:14;99798.78;;;26.39;63.93
49567;BME280;35472;50.514;30.448;2022-08-19T10:59:40;99785.25;;;26.82;62.15
49567;BME280;35472;50.514;30.448;2022-08-19T11:02:08;99793.22;;;27.31;60.65
49567;BME280;35472;50.514;30.448;2022-08-19T11:04:36;99795.03;;;26.58;63.47
49567;BME280;35472;50.514;30.448;2022-08-19T11:07:03;99810.16;;;26.19;64.56
49567;BME280;35472;50.514;30.448;2022-08-19T11:09:29;99804.38;;;26.02;65.19
49567;BME280;35472;50.514;30.448;2022-08-19T11:11:55;99800.53;;;25.80;64.80
49567;BME280;35472;50.514;30.448;2022-08-19T11:14:22;99808.88;;;26.10;64.64
49567;BME280;35472;50.514;30.448;2022-08-19T11:16:52;99791.59;;;25.71;66.36
49567;BME280;35472;50.514;30.448;2022-08-19T11:19:21;99797.56;;;25.69;67.24
49567;BME280;35472;50.514;30.448;2022-08-19T11:21:49;99804.22;;;25.87;66.88
49567;BME280;35472;50.514;30.448;2022-08-19T11:24:23;99798.47;;;26.44;65.32
49567;BME280;35472;50.514;30.448;2022-08-19T11:26:50;99800.75;;;25.98;65.51
49567;BME280;35472;50.514;30.448;2022-08-19T11:29:18;99786.41;;;26.77;63.22
49567;BME280;35472;50.514;30.448;2022-08-19T11:31:47;99786.88;;;26.86;63.08
49567;BME280;35472;50.514;30.448;2022-08-19T11:34:15;99784.66;;;27.06;61.95
49567;BME280;35472;50.514;30.448;2022-08-19T11:36:43;99804.81;;;27.30;61.25
49567;BME280;35472;50.514;30.448;2022-08-19T11:39:11;99798.03;;;26.05;65.15
49567;BME280;35472;50.514;30.448;2022-08-19T11:41:37;99810.91;;;26.13;64.89
49567;BME280;35472;50.514;30.448;2022-08-19T11:44:03;99797.53;;;26.33;63.55
49567;BME280;35472;50.514;30.448;2022-08-19T11:46:30;99804.69;;;26.64;62.73
49567;BME280;35472;50.514;30.448;2022-08-19T11:48:57;99787.97;;;27.22;60.85
49567;BME280;35472;50.514;30.448;2022-08-19T11:51:24;99781.34;;;26.49;62.39
49567;BME280;35472;50.514;30.448;2022-08-19T11:53:50;99802.56;;;26.16;63.83
49567;BME280;35472;50.514;30.448;2022-08-19T11:56:17;99802.75;;;25.97;64.34
49567;BME280;35472;50.514;30.448;2022-08-19T11:58:42;99802.25;;;26.25;64.45
49567;BME280;35472;50.514;30.448;2022-08-19T12:01:14;99800.78;;;26.38;64.20
49567;BME280;35472;50.514;30.448;2022-08-19T12:03:41;99812.63;;;26.25;64.60
49567;BME280;35472;50.514;30.448;2022-08-19T12:06:14;99809.50;;;25.96;64.62
49567;BME280;35472;50.514;30.448;2022-08-19T12:08:41;99810.31;;;25.97;65.42
49567;BME280;35472;50.514;30.448;2022-08-19T12:11:08;99825.44;;;25.65;66.14
49567;BME280;35472;50.514;30.448;2022-08-19T12:13:35;99819.13;;;25.68;66.59
49567;BME280;35472;50.514;30.448;2022-08-19T12:16:14;99815.88;;;25.36;67.99
49567;BME280;35472;50.514;30.448;2022-08-19T12:18:42;99823.69;;;25.54;67.49
49567;BME280;35472;50.514;30.448;2022-08-19T12:21:11;99813.66;;;25.49;67.94
49567;BME280;35472;50.514;30.448;2022-08-19T12:23:38;99806.88;;;25.77;67.48
49567;BME280;35472;50.514;30.448;2022-08-19T12:26:04;99815.59;;;25.45;68.07
49567;BME280;35472;50.514;30.448;2022-08-19T12:28:30;99805.06;;;25.61;67.18
49567;BME280;35472;50.514;30.448;2022-08-19T12:30:55;99821.81;;;25.35;68.98
49567;BME280;35472;50.514;30.448;2022-08-19T12:33:21;99816.84;;;24.98;71.26
49567;BME280;35472;50.514;30.448;2022-08-19T12:35:50;99815.03;;;25.06;71.58
49567;BME280;35472;50.514;30.448;2022-08-19T12:38:16;99808.25;;;25.07;72.16
49567;BME280;35472;50.514;30.448;2022-08-19T12:40:41;99822.16;;;24.57;74.17
49567;BME280;35472;50.514;30.448;2022-08-19T12:43:10;99817.88;;;24.64;74.62
49567;BME280;35472;50.514;30.448;2022-08-19T12:45:37;99811.00;;;24.57;75.43
49567;BME280;35472;50.514;30.448;2022-08-19T12:48:03;99820.28;;;24.03;78.03
49567;BME280;35472;50.514;30.448;2022-08-19T12:50:30;99840.94;;;24.41;77.31
49567;BME280;35472;50.514;30.448;2022-08-19T12:52:56;99854.59;;;24.07;78.42
49567;BME280;35472;50.514;30.448;2022-08-19T12:55:21;99838.31;;;24.10;78.33
49567;BME280;35472;50.514;30.448;2022-08-19T12:57:47;99836.41;;;24.33;77.19
49567;BME280;35472;50.514;30.448;2022-08-19T13:00:16;99839.63;;;24.16;77.14
49567;BME280;35472;50.514;30.448;2022-08-19T13:02:44;99852.53;;;23.85;78.03